Time;durP1;ratioP1;P1;durP2;ratioP2;P2;SDS_P1;SDS_P2;PMS_P1;PMS_P2;Temp;Humidity;BMP_temperature;BMP_pressure;BME280_temperature;BME280_humidity;BME280_pressure;Samples;Min_cycle;Max_cycle;Signal;HPM_P1;HPM_P2
2022/09/01 00:02:20;;;;;;;8.43;4.82;;;14.00;99.90;;;;;;4972271;28;20080;-71
2022/09/01 00:04:46;;;;;;;3.88;3.58;;;14.00;99.90;;;;;;4971716;28;20073;-71
2022/09/01 00:07:13;;;;;;;5.80;4.50;;;13.90;99.90;;;;;;4961661;28;20046;-71
2022/09/01 00:09:39;;;;;;;5.47;4.72;;;14.00;99.90;;;;;;4971912;28;20125;-71
2022/09/01 00:12:07;;;;;;;4.65;4.03;;;13.90;99.90;;;;;;4971543;28;20043;-71
2022/09/01 00:14:36;;;;;;;8.43;4.80;;;13.90;99.90;;;;;;4969900;28;20913;-71
2022/09/01 00:17:06;;;;;;;5.25;4.38;;;14.00;99.90;;;;;;4971855;28;20082;-71
2022/09/01 00:19:32;;;;;;;5.80;4.00;;;14.00;99.90;;;;;;4970817;28;20051;-71
2022/09/01 00:21:59;;;;;;;10.38;4.68;;;14.00;99.90;;;;;;4966672;28;20043;-71
2022/09/01 00:24:25;;;;;;;4.85;3.80;;;13.90;99.90;;;;;;4971991;28;20047;-71
2022/09/01 00:26:51;;;;;;;10.38;4.22;;;13.90;99.90;;;;;;4968753;28;20070;-71
2022/09/01 00:29:17;;;;;;;5.38;4.72;;;13.90;99.90;;;;;;4971389;28;20695;-71
2022/09/01 00:31:43;;;;;;;5.07;4.47;;;13.90;99.90;;;;;;4970872;28;20075;-71
2022/09/01 00:34:09;;;;;;;5.88;4.63;;;13.80;99.90;;;;;;4971585;28;20098;-71
2022/09/01 00:36:35;;;;;;;6.10;4.20;;;13.90;99.90;;;;;;4970384;28;20043;-71
2022/09/01 00:39:01;;;;;;;3.88;3.58;;;13.80;99.90;;;;;;4971033;28;20047;-71
2022/09/01 00:41:31;;;;;;;4.75;3.80;;;13.90;99.90;;;;;;4969678;28;20043;-71
2022/09/01 00:44:00;;;;;;;8.57;4.45;;;13.80;99.90;;;;;;4970826;28;20411;-71
2022/09/01 00:46:33;;;;;;;6.10;4.45;;;13.80;99.90;;;;;;4971135;28;20141;-71
2022/09/01 00:49:13;;;;;;;4.30;3.72;;;13.80;99.90;;;;;;4969390;28;20600;-72
2022/09/01 00:51:41;;;;;;;4.97;4.38;;;13.80;99.90;;;;;;4970442;28;20054;-71
2022/09/01 00:54:12;;;;;;;4.40;4.00;;;13.80;99.90;;;;;;4967050;28;20126;-71
2022/09/01 00:56:39;;;;;;;3.80;3.50;;;13.80;99.90;;;;;;4970731;28;20061;-71
2022/09/01 00:59:06;;;;;;;7.18;5.00;;;13.70;99.90;;;;;;4969666;28;20118;-71
2022/09/01 01:01:36;;;;;;;8.10;4.15;;;13.70;99.90;;;;;;4970810;28;20050;-71
2022/09/01 01:04:13;;;;;;;12.43;5.30;;;13.60;99.90;;;;;;4971113;28;20114;-71
2022/09/01 01:06:57;;;;;;;5.85;5.28;;;13.60;99.90;;;;;;4970656;28;20050;-71
2022/09/01 01:09:25;;;;;;;4.93;4.28;;;13.60;99.90;;;;;;4970660;28;20566;-71
2022/09/01 01:11:51;;;;;;;4.20;3.88;;;13.50;99.90;;;;;;4970626;28;20047;-71
2022/09/01 01:14:18;;;;;;;5.40;4.10;;;13.50;99.90;;;;;;4970653;28;20050;-71
2022/09/01 01:16:46;;;;;;;4.80;4.28;;;13.50;99.90;;;;;;4969734;28;20800;-71
2022/09/01 01:23:01;;;;;;;6.00;4.43;;;13.40;99.90;;;;;;4969518;28;20054;-71
2022/09/01 01:25:38;;;;;;;4.68;4.05;;;13.30;99.90;;;;;;4948936;28;20054;-71
2022/09/01 01:28:09;;;;;;;4.50;4.10;;;13.30;99.90;;;;;;4970578;28;20046;-71
2022/09/01 01:30:38;;;;;;;5.25;4.75;;;13.30;99.90;;;;;;4970003;28;20081;-71
2022/09/01 01:33:05;;;;;;;4.88;4.45;;;13.20;99.90;;;;;;4970643;28;20753;-71
2022/09/01 01:35:32;;;;;;;4.88;4.38;;;13.20;99.90;;;;;;4967837;28;20132;-71
2022/09/01 01:38:00;;;;;;;7.35;4.70;;;13.20;99.90;;;;;;4964253;28;20047;-71
2022/09/01 01:40:28;;;;;;;;;;;13.20;99.90;;;;;;4961356;28;20047;-71
2022/09/01 01:42:56;;;;;;;4.30;3.97;;;13.10;99.90;;;;;;4965844;28;19968;-71
2022/09/01 01:45:23;;;;;;;4.07;3.78;;;13.10;99.90;;;;;;4970384;28;20085;-71
2022/09/01 01:47:53;;;;;;;9.55;4.85;;;13.10;99.90;;;;;;4962456;28;20173;-71
2022/09/01 01:50:32;;;;;;;4.45;4.07;;;13.00;99.90;;;;;;4965484;28;20090;-71
2022/09/01 01:52:58;;;;;;;5.75;4.45;;;13.00;99.90;;;;;;4968590;28;20492;-71
2022/09/01 01:55:27;;;;;;;5.00;4.05;;;13.00;99.90;;;;;;4969424;28;20097;-71
2022/09/01 01:57:55;;;;;;;5.80;4.65;;;13.00;99.90;;;;;;4969838;28;20082;-71
2022/09/01 02:00:25;;;;;;;5.43;4.93;;;13.00;99.90;;;;;;4967726;28;20054;-71
2022/09/01 02:02:52;;;;;;;5.45;4.05;;;12.90;99.90;;;;;;4963250;28;20061;-72
2022/09/01 02:05:30;;;;;;;6.00;4.75;;;12.90;99.90;;;;;;4963276;28;20555;-70
2022/09/01 02:08:03;;;;;;;7.47;5.15;;;12.90;99.90;;;;;;4969692;28;20053;-71
2022/09/01 02:10:40;;;;;;;5.82;4.95;;;12.90;99.90;;;;;;4962027;28;20117;-71
2022/09/01 02:13:10;;;;;;;4.73;4.37;;;12.90;99.90;;;;;;4969195;28;20051;-71
2022/09/01 02:15:44;;;;;;;6.82;4.65;;;12.80;99.90;;;;;;4958352;28;20059;-72
2022/09/01 02:18:19;;;;;;;5.97;5.22;;;12.80;99.90;;;;;;4967261;28;20046;-71
2022/09/01 02:20:48;;;;;;;5.55;4.97;;;12.70;99.90;;;;;;4954697;28;20514;-71
2022/09/01 02:23:16;;;;;;;5.78;5.20;;;12.70;99.90;;;;;;4967721;28;20035;-71
2022/09/01 02:25:44;;;;;;;9.93;6.10;;;12.70;99.90;;;;;;4965490;28;20043;-71
2022/09/01 02:28:14;;;;;;;5.15;4.65;;;12.70;99.90;;;;;;4965345;28;20114;-71
2022/09/01 02:30:45;;;;;;;5.95;5.38;;;12.60;99.90;;;;;;4969463;28;20047;-71
2022/09/01 02:33:18;;;;;;;7.57;5.38;;;12.60;99.90;;;;;;4968162;28;20571;-72
2022/09/01 02:35:58;;;;;;;8.35;4.90;;;12.60;99.90;;;;;;4968497;28;20043;-72
2022/09/01 02:38:26;;;;;;;7.18;4.70;;;12.60;99.90;;;;;;4965704;28;20051;-72
2022/09/01 02:40:52;;;;;;;7.03;5.88;;;12.60;99.90;;;;;;4968085;28;20117;-72
2022/09/01 02:43:19;;;;;;;4.82;4.40;;;12.60;99.90;;;;;;4969068;28;20051;-72
2022/09/01 02:45:56;;;;;;;5.45;4.95;;;12.60;99.90;;;;;;4969408;28;20533;-72
2022/09/01 02:48:34;;;;;;;6.78;5.45;;;12.60;99.90;;;;;;4969173;28;20050;-72
2022/09/01 02:51:02;;;;;;;8.18;5.68;;;12.60;99.90;;;;;;4958589;28;20063;-72
2022/09/01 02:53:29;;;;;;;5.63;5.07;;;12.60;99.90;;;;;;4969058;28;20586;-72
2022/09/01 02:55:57;;;;;;;6.22;5.10;;;12.60;99.90;;;;;;4968736;28;20509;-72
2022/09/01 02:58:33;;;;;;;6.65;5.53;;;12.60;99.90;;;;;;4968852;28;20046;-72
2022/09/01 03:00:58;;;;;;;6.80;5.35;;;12.60;99.90;;;;;;4968390;28;20043;-72
2022/09/01 03:03:24;;;;;;;10.00;6.38;;;12.50;99.90;;;;;;4967002;28;20051;-72
2022/09/01 03:05:55;;;;;;;6.82;5.30;;;12.50;99.90;;;;;;4966983;28;20496;-72
2022/09/01 03:08:23;;;;;;;5.60;5.10;;;12.50;99.90;;;;;;4968897;28;20090;-72
2022/09/01 03:10:50;;;;;;;;;;;12.50;99.90;;;;;;4968488;28;20039;-72
2022/09/01 03:13:20;;;;;;;5.72;5.22;;;12.50;99.90;;;;;;4967467;28;19926;-72
2022/09/01 03:15:46;;;;;;;5.20;4.70;;;12.50;99.90;;;;;;4965739;28;20043;-72
2022/09/01 03:18:14;;;;;;;6.15;5.10;;;12.50;99.90;;;;;;4969079;28;20519;-73
2022/09/01 03:20:43;;;;;;;8.25;5.50;;;12.50;99.90;;;;;;4968498;28;20515;-73
2022/09/01 03:23:13;;;;;;;6.22;5.13;;;12.50;99.90;;;;;;4967710;28;20049;-73
2022/09/01 03:25:41;;;;;;;6.85;6.22;;;12.50;99.90;;;;;;4962405;28;20130;-72
2022/09/01 03:28:08;;;;;;;7.30;5.95;;;12.50;99.90;;;;;;4968801;28;20050;-70
2022/09/01 03:30:39;;;;;;;10.27;5.45;;;12.50;99.90;;;;;;4968024;28;20050;-73
2022/09/01 03:33:06;;;;;;;6.72;5.05;;;12.40;99.90;;;;;;4969216;28;20533;-71
2022/09/01 03:35:32;;;;;;;9.07;5.63;;;12.40;99.90;;;;;;4971812;28;20047;-72
2022/09/01 03:37:59;;;;;;;5.50;5.03;;;12.40;99.90;;;;;;4967817;28;20130;-72
2022/09/01 03:40:31;;;;;;;5.27;4.77;;;12.40;99.90;;;;;;4972074;28;20039;-71
2022/09/01 03:43:00;;;;;;;6.55;6.05;;;12.40;99.90;;;;;;4972150;28;20059;-72
2022/09/01 03:45:28;;;;;;;7.03;5.35;;;12.40;99.90;;;;;;4972310;28;20496;-72
2022/09/01 03:47:54;;;;;;;6.18;5.68;;;12.40;99.90;;;;;;4962066;28;20051;-70
2022/09/01 03:50:23;;;;;;;6.25;5.75;;;12.40;99.90;;;;;;4965638;28;20089;-71
2022/09/01 03:52:55;;;;;;;7.07;5.75;;;12.40;99.90;;;;;;4961147;28;20047;-71
2022/09/01 03:55:31;;;;;;;6.78;5.80;;;12.40;99.90;;;;;;4970129;28;20050;-71
2022/09/01 03:57:59;;;;;;;6.70;5.95;;;12.40;99.90;;;;;;4968438;28;20038;-71
2022/09/01 04:00:31;;;;;;;8.73;6.43;;;12.40;99.90;;;;;;4970860;28;20054;-71
2022/09/01 04:02:59;;;;;;;7.47;6.78;;;12.40;99.90;;;;;;4970271;28;20053;-71
2022/09/01 04:05:30;;;;;;;6.13;5.63;;;12.40;99.90;;;;;;4971961;28;20110;-70
2022/09/01 04:08:00;;;;;;;6.70;6.10;;;12.40;99.90;;;;;;4968314;28;20162;-71
2022/09/01 04:10:27;;;;;;;7.65;6.25;;;12.40;99.90;;;;;;4965169;28;20047;-73
2022/09/01 04:12:55;;;;;;;6.97;6.28;;;12.40;99.90;;;;;;4970588;28;20055;-73
2022/09/01 04:15:21;;;;;;;6.70;6.03;;;12.40;99.90;;;;;;4970461;28;20061;-72
2022/09/01 04:20:38;;;;;;;8.95;6.68;;;12.50;99.90;;;;;;4971139;28;20055;-72
2022/09/01 04:23:09;;;;;;;6.55;5.95;;;12.40;99.90;;;;;;4967312;28;20610;-70
2022/09/01 04:25:37;;;;;;;7.32;6.65;;;12.40;99.90;;;;;;4963231;28;20047;-69
2022/09/01 04:28:11;;;;;;;7.50;6.70;;;12.40;99.90;;;;;;4968818;28;20503;-70
2022/09/01 04:30:39;;;;;;;9.02;6.13;;;12.40;99.90;;;;;;4970743;28;20065;-73
2022/09/01 04:33:06;;;;;;;6.35;5.75;;;12.40;99.90;;;;;;4967772;28;20093;-73
2022/09/01 04:35:37;;;;;;;6.90;6.30;;;12.40;99.90;;;;;;4968734;28;20046;-73
2022/09/01 04:38:03;;;;;;;6.65;6.05;;;12.40;99.90;;;;;;4971533;28;20086;-71
2022/09/01 04:40:29;;;;;;;6.68;5.97;;;12.50;99.90;;;;;;4957694;28;20130;-75
2022/09/01 04:42:54;;;;;;;5.47;4.95;;;12.50;99.90;;;;;;4964436;28;20058;-73
2022/09/01 04:45:26;;;;;;;7.85;6.20;;;12.50;99.90;;;;;;4968210;28;20101;-72
2022/09/01 04:47:51;;;;;;;6.28;5.70;;;12.50;99.90;;;;;;4969762;28;20050;-73
2022/09/01 04:50:18;;;;;;;8.07;5.90;;;12.50;99.90;;;;;;4970713;28;20042;-72
2022/09/01 04:52:44;;;;;;;7.90;6.38;;;12.60;99.90;;;;;;4971348;28;20510;-74
2022/09/01 04:55:17;;;;;;;6.82;6.03;;;12.50;99.90;;;;;;4952718;28;20049;-76
2022/09/01 04:57:48;;;;;;;6.53;6.03;;;12.50;99.90;;;;;;4960251;28;20041;-75
2022/09/01 05:00:21;;;;;;;7.18;6.47;;;12.50;99.90;;;;;;4965583;28;20042;-76
2022/09/01 05:03:02;;;;;;;8.93;6.38;;;12.50;99.90;;;;;;4969289;28;20133;-76
2022/09/01 05:05:28;;;;;;;5.75;4.97;;;12.50;99.90;;;;;;4947862;28;20050;-75
2022/09/01 05:07:54;;;;;;;7.75;6.10;;;12.50;99.90;;;;;;4969885;28;20101;-75
2022/09/01 05:10:22;;;;;;;11.05;6.00;;;12.50;99.90;;;;;;4970461;28;20653;-76
2022/09/01 05:12:49;;;;;;;7.30;6.55;;;12.50;99.90;;;;;;4970120;28;20082;-76
2022/09/01 05:15:16;;;;;;;7.43;6.53;;;12.50;99.90;;;;;;4970450;28;20094;-75
2022/09/01 05:17:42;;;;;;;8.50;6.82;;;12.60;99.90;;;;;;4968362;28;20050;-75
2022/09/01 05:20:10;;;;;;;7.82;7.03;;;12.80;99.90;;;;;;4969302;28;20043;-75
2022/09/01 05:22:39;;;;;;;7.68;6.45;;;12.90;99.90;;;;;;4952744;28;20042;-75
2022/09/01 05:25:15;;;;;;;6.45;5.95;;;12.80;99.90;;;;;;4970495;28;20046;-75
2022/09/01 05:27:48;;;;;;;7.30;6.13;;;12.80;99.90;;;;;;4967545;28;20042;-75
2022/09/01 05:30:15;;;;;;;9.35;7.30;;;12.80;99.90;;;;;;4958550;28;20054;-74
2022/09/01 05:32:42;;;;;;;9.50;5.60;;;12.80;99.90;;;;;;4960909;28;20055;-76
2022/09/01 05:35:08;;;;;;;6.13;5.63;;;12.70;99.90;;;;;;4969102;28;20039;-75
2022/09/01 05:37:38;;;;;;;9.07;5.55;;;12.80;99.90;;;;;;4968441;28;20045;-75
2022/09/01 05:40:14;;;;;;;6.20;5.60;;;13.00;99.90;;;;;;4967717;28;20399;-75
2022/09/01 05:42:41;;;;;;;6.65;6.05;;;13.10;99.90;;;;;;4965894;28;20047;-75
2022/09/01 05:45:10;;;;;;;8.38;6.57;;;13.20;99.90;;;;;;4951741;28;20492;-75
2022/09/01 05:47:37;;;;;;;7.95;5.40;;;13.20;99.90;;;;;;4969906;28;20074;-75
2022/09/01 05:50:09;;;;;;;9.18;5.47;;;13.20;99.90;;;;;;4969469;28;20057;-74
2022/09/01 05:52:38;;;;;;;5.38;4.85;;;13.30;99.90;;;;;;4967324;28;20070;-74
2022/09/01 05:55:07;;;;;;;9.15;5.63;;;13.30;99.90;;;;;;4968837;28;20126;-75
2022/09/01 05:57:34;;;;;;;5.18;4.78;;;13.30;99.90;;;;;;4970232;28;20114;-75
2022/09/01 06:00:09;;;;;;;5.88;5.38;;;13.30;99.90;;;;;;4965399;28;20047;-75
2022/09/01 06:02:36;;;;;;;8.55;5.70;;;13.30;99.90;;;;;;4958581;28;20524;-75
2022/09/01 06:05:02;;;;;;;8.95;6.18;;;13.40;99.90;;;;;;4968953;28;20129;-75
2022/09/01 06:07:28;;;;;;;5.88;5.28;;;13.40;99.90;;;;;;4966142;28;20078;-76
2022/09/01 06:09:54;;;;;;;7.45;6.22;;;13.40;99.90;;;;;;4960709;28;20082;-75
2022/09/01 06:12:23;;;;;;;6.13;5.53;;;13.40;99.90;;;;;;4965849;28;20385;-75
2022/09/01 06:14:54;;;;;;;8.13;5.55;;;13.50;99.90;;;;;;4965749;28;20135;-75
2022/09/01 06:17:23;;;;;;;7.57;6.07;;;13.50;99.90;;;;;;4965565;28;20049;-76
2022/09/01 06:19:56;;;;;;;7.68;6.88;;;13.50;99.90;;;;;;4966667;28;20078;-72
2022/09/01 06:22:24;;;;;;;11.70;7.22;;;13.60;99.90;;;;;;4959501;28;20055;-72
2022/09/01 06:24:53;;;;;;;7.35;6.20;;;13.70;99.90;;;;;;4964724;28;20079;-72
2022/09/01 06:27:19;;;;;;;8.40;6.30;;;13.70;99.90;;;;;;4968054;28;20563;-72
2022/09/01 06:29:48;;;;;;;7.30;6.40;;;13.80;99.90;;;;;;4965549;28;20053;-72
2022/09/01 06:32:13;;;;;;;6.97;6.38;;;13.90;99.90;;;;;;4966525;28;20062;-75
2022/09/01 06:34:42;;;;;;;7.80;6.57;;;14.10;99.90;;;;;;4967668;28;20042;-74
2022/09/01 06:37:08;;;;;;;8.10;7.13;;;14.20;99.90;;;;;;4966953;28;20054;-75
2022/09/01 06:39:34;;;;;;;7.28;6.60;;;14.30;99.90;;;;;;4968914;28;20046;-73
2022/09/01 06:42:01;;;;;;;7.55;6.25;;;14.30;99.90;;;;;;4968896;28;20046;-72
2022/09/01 06:44:29;;;;;;;13.05;6.90;;;14.40;99.90;;;;;;4968818;28;20051;-75
2022/09/01 06:46:55;;;;;;;8.90;6.97;;;14.50;99.90;;;;;;4944034;28;20054;-75
2022/09/01 06:49:31;;;;;;;7.80;6.95;;;14.60;99.90;;;;;;4962689;28;20072;-75
2022/09/01 06:52:01;;;;;;;9.80;7.32;;;14.60;99.90;;;;;;4966734;28;20129;-75
2022/09/01 06:54:33;;;;;;;8.38;7.18;;;14.80;99.90;;;;;;4952107;28;20098;-75
2022/09/01 06:57:02;;;;;;;7.55;6.72;;;14.90;99.90;;;;;;4966252;28;20054;-74
2022/09/01 06:59:30;;;;;;;7.25;6.45;;;15.20;99.90;;;;;;4966852;28;20518;-74
2022/09/01 07:02:00;;;;;;;12.23;5.95;;;15.50;99.90;;;;;;4965604;28;20038;-74
2022/09/01 07:04:30;;;;;;;9.38;5.82;;;15.70;99.90;;;;;;4969295;28;20046;-74
2022/09/01 07:06:56;;;;;;;12.50;7.05;;;16.00;99.90;;;;;;4949156;28;20047;-72
2022/09/01 07:09:22;;;;;;;6.25;5.65;;;16.10;99.90;;;;;;4967083;28;20055;-74
2022/09/01 07:11:48;;;;;;;7.10;5.60;;;16.30;99.90;;;;;;4944435;28;20050;-74
2022/09/01 07:14:15;;;;;;;5.55;5.13;;;16.50;99.90;;;;;;4966990;28;20112;-70
2022/09/01 07:16:42;;;;;;;6.20;5.68;;;16.60;99.90;;;;;;4962709;28;20047;-70
2022/09/01 07:19:13;;;;;;;9.13;5.88;;;16.80;99.90;;;;;;4967571;28;20094;-70
2022/09/01 07:21:41;;;;;;;5.68;5.28;;;17.00;99.90;;;;;;4967955;28;20050;-70
2022/09/01 07:24:07;;;;;;;6.35;5.85;;;17.20;99.90;;;;;;4968663;28;20416;-70
2022/09/01 07:26:34;;;;;;;8.57;5.40;;;17.40;99.90;;;;;;4966969;28;20094;-69
2022/09/01 07:29:02;;;;;;;8.57;6.17;;;17.60;99.90;;;;;;4967462;28;20050;-69
2022/09/01 07:31:37;;;;;;;8.30;5.18;;;17.80;99.90;;;;;;4968668;28;20278;-70
2022/09/01 07:34:07;;;;;;;8.45;4.68;;;17.90;99.90;;;;;;4967639;28;20133;-70
2022/09/01 07:36:33;;;;;;;7.28;5.60;;;18.20;99.90;;;;;;4967985;28;20500;-70
2022/09/01 07:39:00;;;;;;;6.47;5.15;;;18.40;99.90;;;;;;4967943;28;20047;-69
2022/09/01 07:41:27;;;;;;;9.18;5.88;;;18.50;99.90;;;;;;4963465;28;20062;-70
2022/09/01 07:43:55;;;;;;;7.13;5.63;;;18.60;99.90;;;;;;4966696;28;20086;-71
2022/09/01 07:46:22;;;;;;;;;;;18.70;99.90;;;;;;4966962;28;20130;-70
2022/09/01 07:48:49;;;;;;;12.65;6.00;;;18.80;99.90;;;;;;4968241;28;19922;-68
2022/09/01 07:51:18;;;;;;;14.15;4.65;;;18.90;99.90;;;;;;4966394;28;20058;-68
2022/09/01 07:53:47;;;;;;;7.20;5.93;;;19.10;99.90;;;;;;4968320;28;20074;-68
2022/09/01 07:56:14;;;;;;;6.47;5.50;;;19.10;99.90;;;;;;4966873;28;20050;-67
2022/09/01 07:58:40;;;;;;;6.03;5.22;;;19.30;99.90;;;;;;4965421;28;20067;-71
2022/09/01 08:01:17;;;;;;;5.30;4.90;;;19.40;99.90;;;;;;4955711;28;20047;-69
2022/09/01 08:03:48;;;;;;;5.70;5.20;;;19.70;99.90;;;;;;4968471;28;20158;-70
2022/09/01 08:06:18;;;;;;;5.22;4.80;;;19.70;99.90;;;;;;4967645;28;20039;-69
2022/09/01 08:08:44;;;;;;;12.15;5.40;;;19.70;99.90;;;;;;4968643;28;20851;-77
2022/09/01 08:11:16;;;;;;;5.30;4.80;;;19.70;99.90;;;;;;4968170;28;20142;-77
2022/09/01 08:13:42;;;;;;;5.50;5.05;;;19.70;99.90;;;;;;4968049;28;20051;-77
2022/09/01 08:16:09;;;;;;;5.30;4.72;;;19.90;99.90;;;;;;4966540;28;20054;-77
2022/09/01 08:18:35;;;;;;;7.10;5.05;;;20.00;99.90;;;;;;4969873;28;20399;-76
2022/09/01 08:21:07;;;;;;;5.20;4.78;;;20.00;99.90;;;;;;4970628;28;20055;-76
2022/09/01 08:23:32;;;;;;;10.68;5.57;;;20.00;99.90;;;;;;4971687;28;20051;-77
2022/09/01 08:26:03;;;;;;;5.22;4.80;;;20.10;99.90;;;;;;4969110;28;20050;-77
2022/09/01 08:28:28;;;;;;;5.85;5.28;;;20.10;99.90;;;;;;4962712;28;20129;-77
2022/09/01 08:30:55;;;;;;;9.55;5.53;;;20.30;99.90;;;;;;4970420;28;20050;-77
2022/09/01 08:33:20;;;;;;;6.95;4.68;;;20.30;99.90;;;;;;4971034;28;20074;-76
2022/09/01 08:35:48;;;;;;;9.10;4.70;;;20.50;99.90;;;;;;4963154;28;20075;-77
2022/09/01 08:38:14;;;;;;;10.45;5.47;;;20.70;99.90;;;;;;4969206;28;20138;-78
2022/09/01 08:40:41;;;;;;;4.68;4.28;;;21.10;98.50;;;;;;4970556;28;20125;-77
2022/09/01 08:43:33;;;;;;;4.63;4.22;;;21.20;98.20;;;;;;4965904;28;20620;-77
2022/09/01 08:46:08;;;;;;;9.07;4.95;;;21.20;93.30;;;;;;4967477;28;20067;-77
2022/09/01 08:48:39;;;;;;;13.05;4.35;;;21.20;94.40;;;;;;4951981;28;20047;-77
2022/09/01 08:51:20;;;;;;;6.57;4.18;;;21.30;94.10;;;;;;4968703;28;20043;-77
2022/09/01 08:54:13;;;;;;;5.70;3.85;;;21.30;93.30;;;;;;4971369;28;20061;-77
2022/09/01 08:56:40;;;;;;;6.03;4.28;;;21.40;91.40;;;;;;4969218;28;20046;-77
2022/09/01 08:59:08;;;;;;;4.25;3.85;;;21.50;91.70;;;;;;4964236;28;20042;-76
2022/09/01 09:01:38;;;;;;;;;;;21.60;91.60;;;;;;4961864;28;20118;-76
2022/09/01 09:04:40;;;;;;;5.45;3.60;;;21.60;88.80;;;;;;4968782;28;20367;-77
2022/09/01 09:07:20;;;;;;;4.53;3.00;;;21.80;84.80;;;;;;4964281;28;20085;-76
2022/09/01 09:09:52;;;;;;;5.03;3.65;;;21.80;86.10;;;;;;4960743;28;20050;-77
2022/09/01 09:12:37;;;;;;;9.98;3.92;;;22.00;84.80;;;;;;4969848;28;20516;-77
2022/09/01 09:15:24;;;;;;;3.00;2.70;;;22.10;80.30;;;;;;4970516;28;20054;-76
2022/09/01 09:17:58;;;;;;;8.60;3.47;;;22.00;80.60;;;;;;4968017;28;20457;-76
2022/09/01 09:20:27;;;;;;;10.23;3.45;;;22.10;80.70;;;;;;4970514;28;20813;-75
2022/09/01 09:22:54;;;;;;;3.38;2.72;;;22.20;79.80;;;;;;4967606;28;20058;-76
2022/09/01 09:25:20;;;;;;;5.82;2.50;;;22.20;78.30;;;;;;4968439;28;20130;-75
2022/09/01 09:27:47;;;;;;;4.88;3.38;;;22.20;75.80;;;;;;4968786;28;20051;-76
2022/09/01 09:30:20;;;;;;;2.85;2.47;;;22.20;75.40;;;;;;4970059;28;20053;-77
2022/09/01 09:33:02;;;;;;;3.53;2.50;;;22.20;76.00;;;;;;4968860;28;20047;-75
2022/09/01 09:35:40;;;;;;;2.67;2.38;;;22.50;75.40;;;;;;4952449;28;20102;-77
2022/09/01 09:38:17;;;;;;;10.82;2.58;;;22.50;73.60;;;;;;4967182;28;20667;-76
2022/09/01 09:41:05;;;;;;;8.23;2.22;;;22.70;70.10;;;;;;4968646;28;20043;-77
2022/09/01 09:43:45;;;;;;;4.28;2.33;;;22.90;68.20;;;;;;4969396;28;20403;-78
2022/09/01 09:46:36;;;;;;;3.20;1.73;;;22.90;68.40;;;;;;4969897;28;20074;-75
2022/09/01 09:49:15;;;;;;;8.63;2.25;;;22.80;65.50;;;;;;4969055;28;20059;-76
2022/09/01 09:51:44;;;;;;;5.40;2.03;;;22.60;64.90;;;;;;4969537;28;20050;-77
2022/09/01 09:54:32;;;;;;;3.47;2.22;;;22.60;65.20;;;;;;4969698;28;20046;-75
2022/09/01 09:57:10;;;;;;;4.95;2.00;;;22.60;64.30;;;;;;4967716;28;20057;-76
2022/09/01 10:00:14;;;;;;;2.78;2.13;;;22.60;64.80;;;;;;4968978;28;20090;-76
2022/09/01 10:02:42;;;;;;;8.27;2.13;;;22.80;63.50;;;;;;4959299;28;20508;-75
2022/09/01 10:05:20;;;;;;;6.63;2.28;;;22.70;63.50;;;;;;4967907;28;20047;-76
2022/09/01 10:07:46;;;;;;;1.63;1.52;;;23.10;62.00;;;;;;4967294;28;20050;-76
2022/09/01 10:10:44;;;;;;;2.50;1.67;;;22.90;61.80;;;;;;4969107;28;20562;-77
2022/09/01 10:13:23;;;;;;;3.38;2.00;;;22.80;62.00;;;;;;4969847;28;20057;-76
2022/09/01 10:15:55;;;;;;;4.13;1.70;;;22.90;60.90;;;;;;4968780;28;20058;-77
2022/09/01 10:18:25;;;;;;;6.28;2.00;;;22.60;62.00;;;;;;4967174;28;20043;-76
2022/09/01 10:20:58;;;;;;;3.53;1.77;;;22.70;59.40;;;;;;4967070;28;20046;-76
2022/09/01 10:23:26;;;;;;;2.55;1.92;;;22.70;59.40;;;;;;4968124;28;20138;-76
2022/09/01 10:25:55;;;;;;;2.28;1.70;;;22.80;59.40;;;;;;4967476;28;20043;-76
2022/09/01 10:28:23;;;;;;;1.98;1.33;;;23.00;58.00;;;;;;4969138;28;20121;-77
2022/09/01 10:30:51;;;;;;;2.67;1.95;;;22.90;58.70;;;;;;4968494;28;20057;-76
2022/09/01 10:33:18;;;;;;;14.50;2.85;;;23.10;58.90;;;;;;4969700;28;20035;-76
2022/09/01 10:35:47;;;;;;;4.18;2.05;;;22.80;59.20;;;;;;4969289;28;20499;-75
2022/09/01 10:38:27;;;;;;;11.63;2.25;;;22.70;60.00;;;;;;4967443;28;20145;-75
2022/09/01 10:41:07;;;;;;;3.58;1.80;;;22.60;59.50;;;;;;4950456;28;20067;-77
2022/09/01 10:44:10;;;;;;;5.50;1.90;;;22.30;60.50;;;;;;4968639;28;20507;-77
2022/09/01 10:46:35;;;;;;;1.80;1.70;;;22.40;59.10;;;;;;4951629;28;20049;-75
2022/09/01 10:49:11;;;;;;;2.17;1.95;;;22.10;60.50;;;;;;4966633;28;20050;-76
2022/09/01 10:51:43;;;;;;;2.63;2.10;;;21.90;61.70;;;;;;4967212;28;20043;-75
2022/09/01 10:54:29;;;;;;;3.35;2.00;;;21.90;61.00;;;;;;4969046;28;20460;-76
2022/09/01 10:56:55;;;;;;;3.90;1.90;;;22.30;60.60;;;;;;4965305;28;20055;-77
2022/09/01 10:59:21;;;;;;;16.40;2.03;;;22.50;57.60;;;;;;4967962;28;20157;-77
2022/09/01 11:01:47;;;;;;;3.67;2.28;;;22.60;59.30;;;;;;4964607;28;20153;-76
2022/09/01 11:04:21;;;;;;;4.07;2.47;;;22.70;59.10;;;;;;4960321;28;20048;-76
2022/09/01 11:06:51;;;;;;;5.15;1.92;;;23.10;58.40;;;;;;4962108;28;20098;-77
2022/09/01 11:09:23;;;;;;;2.30;2.10;;;22.70;58.50;;;;;;4967790;28;20113;-77
2022/09/01 11:12:10;;;;;;;4.35;2.75;;;22.50;59.40;;;;;;4968330;28;20042;-76
2022/09/01 11:14:56;;;;;;;2.63;2.20;;;22.10;59.00;;;;;;4967775;28;20500;-76
2022/09/01 11:17:35;;;;;;;3.20;2.90;;;21.80;59.40;;;;;;4957540;28;20400;-77
2022/09/01 11:20:32;;;;;;;3.58;2.47;;;22.20;61.20;;;;;;4958376;28;20055;-76
2022/09/01 11:23:06;;;;;;;3.33;2.72;;;22.80;59.20;;;;;;4961490;28;20043;-75
2022/09/01 11:25:38;;;;;;;3.47;2.35;;;23.30;59.30;;;;;;4967233;28;20055;-77
2022/09/01 11:28:34;;;;;;;4.25;2.63;;;23.30;57.80;;;;;;4966879;28;20500;-77
2022/09/01 11:31:17;;;;;;;6.05;2.85;;;22.90;57.30;;;;;;4965048;28;20157;-78
2022/09/01 11:33:55;;;;;;;5.43;2.67;;;22.90;58.50;;;;;;4949048;28;20488;-76
2022/09/01 11:36:27;;;;;;;;;;;23.20;58.10;;;;;;4962594;28;20046;-76
2022/09/01 11:39:17;;;;;;;2.50;1.90;;;23.20;58.80;;;;;;4962985;28;19925;-77
2022/09/01 11:41:54;;;;;;;4.95;3.30;;;23.20;57.40;;;;;;4967807;28;20057;-76
2022/09/01 11:44:32;;;;;;;3.30;2.42;;;23.60;57.40;;;;;;4963613;28;20051;-76
2022/09/01 11:47:10;;;;;;;2.30;2.10;;;23.50;56.00;;;;;;4961984;28;20051;-75
2022/09/01 11:49:37;;;;;;;;;;;23.60;56.10;;;;;;4969191;28;20050;-76
2022/09/01 11:52:04;;;;;;;4.25;2.17;;;23.80;56.00;;;;;;4970405;28;19930;-75
2022/09/01 11:54:39;;;;;;;2.75;2.20;;;23.70;55.50;;;;;;4971719;28;20054;-76
2022/09/01 11:57:18;;;;;;;7.20;2.85;;;23.30;56.20;;;;;;4962248;28;20057;-76
2022/09/01 11:59:44;;;;;;;3.42;2.70;;;23.30;55.20;;;;;;4971896;28;20053;-76
2022/09/01 12:02:17;;;;;;;7.38;3.05;;;23.10;56.60;;;;;;4965972;28;20055;-77
2022/09/01 12:04:43;;;;;;;7.63;2.83;;;23.40;56.00;;;;;;4966074;28;20122;-76
2022/09/01 12:07:23;;;;;;;4.35;2.55;;;23.40;55.50;;;;;;4969130;28;20133;-75
2022/09/01 12:09:49;;;;;;;12.07;3.17;;;23.60;56.20;;;;;;4954164;28;20042;-76
2022/09/01 12:12:44;;;;;;;2.78;2.38;;;23.80;55.20;;;;;;4971311;28;20046;-76
2022/09/01 12:15:21;;;;;;;2.17;2.03;;;24.00;54.70;;;;;;4962439;28;20085;-75
2022/09/01 12:17:47;;;;;;;2.65;2.45;;;23.90;53.70;;;;;;4969447;28;20046;-75
2022/09/01 12:20:31;;;;;;;2.55;2.00;;;23.80;54.10;;;;;;4961096;28;20058;-78
2022/09/01 12:22:58;;;;;;;10.73;2.65;;;24.00;53.90;;;;;;4969041;28;20094;-76
2022/09/01 12:25:33;;;;;;;2.50;2.30;;;24.20;53.30;;;;;;4964690;28;20106;-77
2022/09/01 12:28:04;;;;;;;3.58;2.30;;;24.50;53.20;;;;;;4967572;28;20125;-77
2022/09/01 12:30:34;;;;;;;7.53;2.58;;;24.50;52.60;;;;;;4970214;28;20058;-77
2022/09/01 12:33:04;;;;;;;2.75;2.28;;;24.40;53.90;;;;;;4969372;28;20133;-78
2022/09/01 12:35:29;;;;;;;5.30;2.67;;;24.10;53.40;;;;;;4970421;28;20047;-76
2022/09/01 12:38:19;;;;;;;2.85;2.63;;;23.90;53.70;;;;;;4970679;28;20043;-76
2022/09/01 12:40:51;;;;;;;2.10;2.00;;;24.00;53.00;;;;;;4970968;28;20053;-77
2022/09/01 12:43:31;;;;;;;2.60;2.40;;;24.40;53.60;;;;;;4970383;28;20133;-76
2022/09/01 12:45:59;;;;;;;3.25;2.05;;;24.50;51.30;;;;;;4969315;28;20054;-77
2022/09/01 12:48:28;;;;;;;3.80;2.22;;;24.40;52.20;;;;;;4969818;28;20046;-77
2022/09/01 12:50:54;;;;;;;3.20;2.88;;;24.30;52.40;;;;;;4969649;28;20086;-76
2022/09/01 12:53:23;;;;;;;2.47;2.22;;;24.20;53.00;;;;;;4969595;28;20094;-76
2022/09/01 12:56:16;;;;;;;4.95;1.92;;;24.40;52.70;;;;;;4969229;28;20054;-77
2022/09/01 12:58:47;;;;;;;7.32;2.40;;;24.60;51.10;;;;;;4969418;28;20046;-75
2022/09/01 13:01:25;;;;;;;8.82;2.45;;;24.80;52.00;;;;;;4970115;28;20054;-75
2022/09/01 13:04:08;;;;;;;;;;;24.80;51.60;;;;;;4968770;28;20530;-76
2022/09/01 13:06:34;;;;;;;2.88;2.30;;;24.70;50.50;;;;;;4960504;28;20009;-76
2022/09/01 13:09:00;;;;;;;5.53;1.98;;;24.40;50.20;;;;;;4970011;28;20125;-76
2022/09/01 13:11:25;;;;;;;2.70;2.22;;;24.30;50.50;;;;;;4970841;28;20129;-76
2022/09/01 13:13:52;;;;;;;2.70;2.28;;;24.40;50.50;;;;;;4970576;28;20625;-77
2022/09/01 13:16:18;;;;;;;6.20;2.45;;;24.50;50.40;;;;;;4970770;28;20129;-75